• Join FlightAware (Why Join?)
  • Login
  • US Flag 
08:42AM EDT


 

Airport Tracker/Info


-or-


 

Live Flight TrackerFlight Track Log ✈ SKW2696 ✈ 08-Apr-2013 ✈ KLAX - KRNO

Flight Track Log - Related Links

Times and Time Zones

All times are in EDT time to prevent confusion due to time zone crossing. See the SKW2696 flight status page for this flight to view local times or setup timezone preferences in your user account.

Time Position Orientation Groundspeed Altitude Reporting Facility
EDT Latitude Longitude Course Direction KTS MPH feet Rate Location/Type
06:32PM 33.9333 -118.4833 North 232 267 3,100  Level Southern California TRACON
06:33PM 33.9167 -118.5667 256° West 264 304 6,300 2,880 Climbing Southern California TRACON
06:34PM 33.9500 -118.6500 296° West 272 313 8,900 1,380 Climbing Southern California TRACON
06:35PM 34.0028 -118.6836 332° Northwest 259 298 9,000  Climbing Los Angeles Center
06:36PM 34.0731 -118.6678 11° North 260 299 9,000 120 Level Los Angeles Center
06:37PM 34.2767 -118.6000 North  Level FlightAware Approximate
06:37PM 34.1350 -118.6422 19° North 253 291 9,300  Level Los Angeles Center
06:38PM 34.2031 -118.6117 20° North 258 297 12,700 2,760 Climbing Los Angeles Center
06:39PM 34.2797 -118.6153 358° North 232 267 15,100 1,800 Climbing Los Angeles Center
06:40PM 34.3492 -118.6369 346° North 258 297 16,500 1,620 Climbing Los Angeles Center
06:41PM 34.4172 -118.6692 339° North 264 304 18,500 1,800 Climbing Los Angeles Center
06:42PM 34.4867 -118.7050 337° Northwest 269 310 20,300 1,740 Climbing Los Angeles Center
06:43PM 34.5583 -118.7389 339° North 276 318 22,100 1,740 Climbing Los Angeles Center
06:44PM 34.6253 -118.7714 338° Northwest 260 299 23,900 900 Climbing Los Angeles Center
06:45PM 34.7083 -118.8111 339° North 267 307 24,000  Climbing Los Angeles Center
06:46PM 34.7886 -118.8222 354° North 288 331 24,000  Level Los Angeles Center
06:47PM 34.8681 -118.8350 352° North 289 333 24,000  Level Los Angeles Center
06:48PM 34.9381 -118.8450 353° North 279 321 24,000  Level Los Angeles Center
06:49PM 35.0239 -118.8583 353° North 261 300 24,000  Level Los Angeles Center
06:50PM 35.0950 -118.8717 351° North 259 298 24,000  Level Los Angeles Center
06:51PM 35.1653 -118.8828 353° North 256 295 24,000  Level Los Angeles Center
06:52PM 35.2364 -118.8944 352° North 259 298 24,000  Level Los Angeles Center
06:53PM 35.3044 -118.9058 352° North 250 288 24,000  Level Los Angeles Center
06:54PM 35.3744 -118.9181 352° North 251 289 24,000 60 Level Los Angeles Center
06:55PM 35.4564 -118.9319 352° North 248 285 24,200 480 Climbing Los Angeles Center
06:56PM 35.5242 -118.9436 352° North 247 284 25,000 360 Climbing Los Angeles Center
06:57PM 35.5931 -118.9550 352° North 250 288 25,000  Level Los Angeles Center
06:58PM 35.6597 -118.9658 352° North 244 281 25,000  Level Los Angeles Center
06:59PM 35.7003 -118.9722 353° North 247 284 25,000 540 Level Oakland Center
07:00PM 35.7664 -118.9850 351° North 243 280 25,900 900 Climbing Oakland Center
07:01PM 35.8342 -118.9953 353° North 245 282 26,900 960 Climbing Oakland Center
07:02PM 35.9061 -118.9828 North 264 304 27,900 840 Climbing Oakland Center
07:03PM 35.9781 -118.9911 355° North 259 298 28,700 720 Climbing Oakland Center
07:04PM 36.0506 -119.0028 353° North 264 304 29,400 660 Climbing Oakland Center
07:05PM 36.1242 -119.0167 351° North 268 308 30,100 660 Climbing Oakland Center
07:06PM 36.1981 -119.0292 352° North 268 308 30,800 660 Climbing Oakland Center
07:07PM 36.2703 -119.0422 352° North 266 306 31,500 540 Climbing Oakland Center
07:08PM 36.3428 -119.0544 352° North 265 305 32,000 240 Climbing Oakland Center
07:09PM 36.4172 -119.0683 351° North 270 311 32,000  Level Oakland Center
07:10PM 36.5136 -119.0869 351° North 291 335 32,000  Level Oakland Center
07:11PM 36.5928 -119.0997 353° North 288 331 32,000  Level Oakland Center
07:12PM 36.6744 -119.1153 351° North 295 339 32,000  Level Oakland Center
07:13PM 36.7544 -119.1306 351° North 294 338 32,000  Level Oakland Center
07:14PM 36.8350 -119.1461 351° North 293 337 32,000  Level Oakland Center
07:15PM 36.9158 -119.1614 351° North 294 338 32,000  Level Oakland Center
07:16PM 36.9978 -119.1756 352° North 299 344 32,000  Level Oakland Center
07:17PM 37.0797 -119.1922 351° North 299 344 32,000  Level Oakland Center
07:18PM 37.1619 -119.2083 351° North 300 345 32,000  Level Oakland Center
07:19PM 37.2444 -119.2217 353° North 301 346 32,000 -240 Level Oakland Center
07:20PM 37.3294 -119.2439 348° North 310 357 31,600 -840 Descending Oakland Center
07:21PM 37.4319 -119.2803 344° North 321 369 30,400 -840 Descending Oakland Center
07:22PM 37.5158 -119.3097 344° North 317 365 30,000 -420 Descending Oakland Center
07:23PM 37.5953 -119.3383 344° North 300 345 29,600 -720 Descending Oakland Center
07:24PM 37.6714 -119.3581 348° North 284 327 28,600 -1,020 Descending Oakland Center
07:25PM 37.7472 -119.3850 344° North 283 326 27,600 -1,020 Descending Oakland Center
07:26PM 37.8231 -119.4136 343° North 284 327 26,600 -1,080 Descending Oakland Center
07:27PM 37.9008 -119.4381 346° North 286 329 25,500 -1,020 Descending Oakland Center
07:28PM 37.9833 -119.4672 344° North 301 346 24,600 -780 Descending Oakland Center
07:29PM 38.0653 -119.4958 345° North 306 352 24,000 -300 Descending Oakland Center
07:30PM 38.1436 -119.5233 345° North 297 342 24,000  Level Oakland Center
07:31PM 38.2169 -119.5517 343° North 284 327 24,000  Level Oakland Center
07:32PM 38.2925 -119.5789 344° North 284 327 24,000 -420 Level Oakland Center
07:33PM 38.3664 -119.6058 344° North 277 319 23,200 -960 Descending Oakland Center
07:34PM 38.4439 -119.6336 344° North 263 303 22,100 -1,080 Descending Oakland Center
07:35PM 38.5100 -119.6575 344° North 250 288 21,100 -1,080 Descending Oakland Center
07:36PM 38.5717 -119.6803 344° North 234 269 20,000 -1,140 Descending Oakland Center
07:37PM 38.6375 -119.7042 344° North 241 277 18,800 -1,200 Descending Oakland Center
07:39PM 38.7039 -119.7289 344° North 248 285 17,600 -1,200 Descending Oakland Center
07:40PM 38.7703 -119.7536 344° North 248 285 16,400 -1,200 Descending Oakland Center
07:41PM 38.8406 -119.7683 351° North 259 298 15,200 -1,260 Descending Oakland Center
07:42PM 38.9117 -119.7706 359° North 256 295 13,900 -1,920 Descending Oakland Center
07:43PM 38.9797 -119.7703 360° North 248 285 11,400 -1,680 Descending Oakland Center
07:44PM 39.0633 -119.7692 North 248 285 10,500 -780 Descending Oakland Center
07:45PM 39.1314 -119.7697 360° North 247 284 9,900 -540 Descending Oakland Center
07:46PM 39.1950 -119.7681 North 240 276 9,500 -600 Descending Oakland Center
07:47PM 39.2553 -119.7672 North 230 265 8,700 -540 Descending Oakland Center
07:48PM 39.3153 -119.7678 360° North 223 257 8,500 -840 Descending Oakland Center
07:50PM 39.4000 -119.7667 North 148 170 6,400 -1,080 Descending Northern Cal TRACON
07:51PM 39.4500 -119.7667 360° North 130 150 5,500 -900 Descending Northern Cal TRACON
07:51PM 39.4833 -119.7667 360° North 133 153 4,800 -780 Descending Northern Cal TRACON
07:53PM 39.4991 -119.7681 North  Level Estimated